createdAt,value
2023-02-03T00:01:58.065Z,21.90
2023-02-03T00:04:24.961Z,21.90
2023-02-03T00:06:52.053Z,21.90
2023-02-03T00:09:20.514Z,21.90
2023-02-03T00:11:47.681Z,21.90
2023-02-03T00:14:14.605Z,21.90
2023-02-03T00:16:41.676Z,21.90
2023-02-03T00:19:08.789Z,21.90
2023-02-03T00:21:35.786Z,21.90
2023-02-03T00:24:02.657Z,21.90
2023-02-03T00:26:29.782Z,21.90
2023-02-03T00:28:59.758Z,21.90
2023-02-03T00:31:26.690Z,21.90
2023-02-03T00:33:56.744Z,21.80
2023-02-03T00:36:25.818Z,21.90
2023-02-03T00:38:53.648Z,21.80
2023-02-03T00:41:21.795Z,21.80
2023-02-03T00:43:49.933Z,21.80
2023-02-03T00:46:16.971Z,21.80
2023-02-03T00:48:44.156Z,21.80
2023-02-03T00:51:11.320Z,21.80
2023-02-03T00:53:38.422Z,21.80
2023-02-03T00:56:12.551Z,21.80
2023-02-03T00:58:42.737Z,21.80
2023-02-03T01:01:10.461Z,21.80
2023-02-03T01:03:38.325Z,21.80
2023-02-03T01:06:21.458Z,21.80
2023-02-03T01:08:49.487Z,21.80
2023-02-03T01:11:24.183Z,21.80
2023-02-03T01:13:53.999Z,21.80
2023-02-03T01:16:23.609Z,21.80
2023-02-03T01:18:51.216Z,21.80
2023-02-03T01:21:24.162Z,21.80
2023-02-03T01:23:52.259Z,21.70
2023-02-03T01:26:22.674Z,21.80
2023-02-03T01:29:00.786Z,21.70
2023-02-03T01:31:42.516Z,21.70
2023-02-03T01:34:14.301Z,21.70
2023-02-03T01:36:41.181Z,21.70
2023-02-03T01:39:08.667Z,20.80
2023-02-03T01:41:39.336Z,21.70
2023-02-03T01:44:43.638Z,21.70
2023-02-03T01:47:30.660Z,21.70
2023-02-03T01:50:39.502Z,21.70
2023-02-03T01:53:12.305Z,21.70
2023-02-03T01:55:45.918Z,21.70
2023-02-03T01:58:27.865Z,21.70
2023-02-03T02:00:57.562Z,21.70
2023-02-03T02:03:33.581Z,21.60
2023-02-03T02:06:09.691Z,21.60
2023-02-03T02:08:40.297Z,21.70
2023-02-03T02:11:08.060Z,21.60
2023-02-03T02:13:36.639Z,21.60
2023-02-03T02:16:17.042Z,21.60
2023-02-03T02:19:17.002Z,21.60
2023-02-03T02:22:20.916Z,21.60
2023-02-03T02:25:21.531Z,21.60
2023-02-03T02:28:04.136Z,21.60
2023-02-03T02:30:57.255Z,21.60
2023-02-03T02:33:42.137Z,21.60
2023-02-03T02:36:25.406Z,21.60
2023-02-03T02:39:38.497Z,21.60
2023-02-03T02:42:17.691Z,21.60
2023-02-03T02:44:53.909Z,21.60
2023-02-03T02:47:23.572Z,21.60
2023-02-03T02:50:06.936Z,21.50
2023-02-03T02:52:41.063Z,21.60
2023-02-03T02:55:24.606Z,21.50
2023-02-03T02:57:57.607Z,21.50
2023-02-03T03:00:24.665Z,21.50
2023-02-03T03:02:51.911Z,21.50
2023-02-03T03:05:19.625Z,21.50
2023-02-03T03:07:57.926Z,21.50
2023-02-03T03:10:30.458Z,21.50
2023-02-03T03:13:07.516Z,21.50
2023-02-03T03:15:38.177Z,21.50
2023-02-03T03:18:13.583Z,21.50
2023-02-03T03:20:44.311Z,21.50
2023-02-03T03:23:39.754Z,21.50
2023-02-03T03:26:19.551Z,21.50
2023-02-03T03:29:13.649Z,21.50
2023-02-03T03:31:41.708Z,21.40
2023-02-03T03:34:12.023Z,21.40
2023-02-03T03:37:01.695Z,21.40
2023-02-03T03:39:37.121Z,21.50
2023-02-03T03:42:22.304Z,21.40
2023-02-03T03:45:02.097Z,21.40
2023-02-03T03:47:44.868Z,21.40
2023-02-03T03:50:19.099Z,21.40
2023-02-03T03:52:49.795Z,21.40
2023-02-03T03:55:20.565Z,21.40
2023-02-03T03:58:08.952Z,21.40
2023-02-03T04:00:40.370Z,21.40
2023-02-03T04:03:27.889Z,21.40
2023-02-03T04:05:54.797Z,21.40
2023-02-03T04:08:21.678Z,21.40
2023-02-03T04:10:48.558Z,21.40
2023-02-03T04:13:16.164Z,21.40
2023-02-03T04:15:43.165Z,21.40
2023-02-03T04:18:13.963Z,21.30
2023-02-03T04:20:41.074Z,21.30
2023-02-03T04:23:08.777Z,21.30
2023-02-03T04:25:36.253Z,21.40
2023-02-03T04:28:03.507Z,21.40
2023-02-03T04:30:30.722Z,21.30
2023-02-03T04:32:57.789Z,21.30
2023-02-03T04:35:24.688Z,21.30
2023-02-03T04:37:51.734Z,21.30
2023-02-03T04:40:18.781Z,21.30
2023-02-03T04:42:45.800Z,21.30
2023-02-03T04:45:13.008Z,21.30
2023-02-03T04:47:40.316Z,21.30
2023-02-03T04:50:08.218Z,21.30
2023-02-03T04:52:35.155Z,21.30
2023-02-03T04:55:03.941Z,21.30
2023-02-03T04:57:31.067Z,21.30
2023-02-03T04:59:57.908Z,21.30
2023-02-03T05:02:24.809Z,21.30
2023-02-03T05:04:51.696Z,21.30
2023-02-03T05:07:18.690Z,21.30
2023-02-03T05:09:45.714Z,21.20
2023-02-03T05:12:12.609Z,21.30
2023-02-03T05:14:39.532Z,21.30
2023-02-03T05:17:06.409Z,21.30
2023-02-03T05:19:33.289Z,21.20
2023-02-03T05:22:00.159Z,21.20
2023-02-03T05:24:27.063Z,21.20
2023-02-03T05:26:53.933Z,21.20
2023-02-03T05:29:21.540Z,21.20
2023-02-03T05:31:48.434Z,21.20
2023-02-03T05:34:15.389Z,21.20
2023-02-03T05:36:42.249Z,21.20
2023-02-03T05:39:09.297Z,21.20
2023-02-03T05:41:57.092Z,21.20
2023-02-03T05:44:28.307Z,21.20
2023-02-03T05:46:59.795Z,21.20
2023-02-03T05:49:26.876Z,21.20
2023-02-03T05:51:55.404Z,21.20
2023-02-03T05:54:22.770Z,21.20
2023-02-03T05:56:50.046Z,21.20
2023-02-03T05:59:17.160Z,21.20
2023-02-03T06:01:44.146Z,21.20
2023-02-03T06:04:11.268Z,21.20
2023-02-03T06:06:38.293Z,21.20
2023-02-03T06:09:08.755Z,21.20
2023-02-03T06:11:36.940Z,21.20
2023-02-03T06:14:04.587Z,21.20
2023-02-03T06:16:34.655Z,21.20
2023-02-03T06:19:02.171Z,21.20
2023-02-03T06:21:29.602Z,21.20
2023-02-03T06:23:56.921Z,21.10
2023-02-03T06:26:25.216Z,21.20
2023-02-03T06:28:52.435Z,21.20
2023-02-03T06:31:19.480Z,21.20
2023-02-03T06:33:46.495Z,21.10
2023-02-03T06:36:13.417Z,21.10
2023-02-03T06:38:40.368Z,21.10
2023-02-03T06:41:07.434Z,21.20
2023-02-03T06:43:35.472Z,21.20
2023-02-03T06:46:03.789Z,21.20
2023-02-03T06:48:30.759Z,21.30
2023-02-03T06:50:57.731Z,21.40
2023-02-03T06:53:24.939Z,21.50
2023-02-03T06:55:53.864Z,21.60
2023-02-03T06:58:20.774Z,21.70
2023-02-03T07:00:47.688Z,21.90
2023-02-03T07:03:14.651Z,22.00
2023-02-03T07:05:41.484Z,22.10
2023-02-03T07:08:08.458Z,22.30
2023-02-03T07:10:35.404Z,22.40
2023-02-03T07:13:07.051Z,22.50
2023-02-03T07:15:35.542Z,22.70
2023-02-03T07:18:02.569Z,22.70
2023-02-03T07:20:30.084Z,22.80
2023-02-03T07:22:58.645Z,23.00
2023-02-03T07:25:26.672Z,23.10
2023-02-03T07:27:54.434Z,23.20
2023-02-03T07:30:21.639Z,23.30
2023-02-03T07:32:54.181Z,23.40
2023-02-03T07:35:21.540Z,23.40
2023-02-03T07:37:48.756Z,23.50
2023-02-03T07:40:16.165Z,23.60
2023-02-03T07:42:49.272Z,23.70
2023-02-03T07:45:18.021Z,23.80
2023-02-03T07:47:45.480Z,23.90
2023-02-03T07:50:13.095Z,24.00
2023-02-03T07:52:40.252Z,24.00
2023-02-03T07:55:08.359Z,24.10
2023-02-03T07:57:35.405Z,24.10
2023-02-03T08:00:03.660Z,24.20
2023-02-03T08:02:30.598Z,24.20
2023-02-03T08:04:58.148Z,24.30
2023-02-03T08:07:26.389Z,24.40
2023-02-03T08:09:53.326Z,24.40
2023-02-03T08:12:20.326Z,24.50
2023-02-03T08:14:47.277Z,24.50
2023-02-03T08:17:14.207Z,24.60
2023-02-03T08:19:41.452Z,24.70
2023-02-03T08:22:08.401Z,24.70
2023-02-03T08:24:35.348Z,24.70
2023-02-03T08:27:02.295Z,24.80
2023-02-03T08:29:31.504Z,24.80
2023-02-03T08:31:58.685Z,24.90
2023-02-03T08:34:25.726Z,24.90
2023-02-03T08:36:54.832Z,24.90
2023-02-03T08:39:21.921Z,25.00
2023-02-03T08:41:48.932Z,25.00
2023-02-03T08:44:15.909Z,25.00
2023-02-03T08:46:44.160Z,25.00
2023-02-03T08:49:12.067Z,25.00
2023-02-03T08:51:39.033Z,25.00
2023-02-03T08:54:06.203Z,24.90
2023-02-03T08:56:34.207Z,24.90
2023-02-03T08:59:01.361Z,25.00
2023-02-03T09:01:28.887Z,25.00
2023-02-03T09:03:56.353Z,25.00
2023-02-03T09:06:26.155Z,25.00
2023-02-03T09:08:53.211Z,25.10
2023-02-03T09:11:20.109Z,25.10
2023-02-03T09:13:48.665Z,25.00
2023-02-03T09:16:18.972Z,25.10
2023-02-03T09:18:47.324Z,25.10
2023-02-03T09:21:32.129Z,25.00
2023-02-03T09:24:04.576Z,25.00
2023-02-03T09:26:31.806Z,25.00
2023-02-03T09:28:58.697Z,25.00
2023-02-03T09:31:25.746Z,25.00
2023-02-03T09:33:52.746Z,24.90
2023-02-03T09:36:19.691Z,24.90
2023-02-03T09:38:46.806Z,24.80
2023-02-03T09:41:50.438Z,24.70
2023-02-03T09:44:23.296Z,24.70
2023-02-03T09:47:06.783Z,24.70
2023-02-03T09:49:42.487Z,24.80
2023-02-03T09:52:23.057Z,24.70
2023-02-03T09:55:33.392Z,24.80
2023-02-03T09:58:18.286Z,24.80
2023-02-03T10:00:52.468Z,24.90
2023-02-03T10:03:34.264Z,24.90
2023-02-03T10:06:22.413Z,25.00
2023-02-03T10:09:24.482Z,25.00
2023-02-03T10:12:28.653Z,25.10
2023-02-03T10:15:27.152Z,25.20
2023-02-03T10:18:07.470Z,25.20
2023-02-03T10:20:50.213Z,25.20
2023-02-03T10:23:31.916Z,25.30
2023-02-03T10:26:03.393Z,25.30
2023-02-03T10:28:37.263Z,25.30
2023-02-03T10:31:17.088Z,25.40
2023-02-03T10:33:44.140Z,25.40
2023-02-03T10:36:41.297Z,25.40
2023-02-03T10:39:30.175Z,25.40
2023-02-03T10:41:57.621Z,25.40
2023-02-03T10:45:12.073Z,25.40
2023-02-03T10:47:46.769Z,25.40
2023-02-03T10:50:21.189Z,25.40
2023-02-03T10:52:48.535Z,25.40
2023-02-03T10:55:22.880Z,25.30
2023-02-03T10:57:53.328Z,25.30
2023-02-03T11:00:31.423Z,25.30
2023-02-03T11:03:08.098Z,25.30
2023-02-03T11:05:35.736Z,25.30
2023-02-03T11:08:03.148Z,25.20
2023-02-03T11:10:38.741Z,25.20
2023-02-03T11:13:26.648Z,25.20
2023-02-03T11:16:12.515Z,25.20
2023-02-03T11:19:01.562Z,25.20
2023-02-03T11:21:37.642Z,25.20
2023-02-03T11:24:15.783Z,25.20
2023-02-03T11:26:57.093Z,25.10
2023-02-03T11:29:30.692Z,25.20
2023-02-03T11:32:03.772Z,25.20
2023-02-03T11:34:38.372Z,25.20
2023-02-03T11:37:29.667Z,25.20
2023-02-03T11:40:12.509Z,25.30
2023-02-03T11:42:43.035Z,25.30
2023-02-03T11:45:44.384Z,25.40
2023-02-03T11:48:11.295Z,25.40
2023-02-03T11:51:29.148Z,25.40
2023-02-03T11:53:58.926Z,25.50
2023-02-03T11:56:38.643Z,25.50
2023-02-03T11:59:49.829Z,25.50
2023-02-03T12:03:18.579Z,25.50
2023-02-03T12:06:16.780Z,25.50
2023-02-03T12:09:17.856Z,25.50
2023-02-03T12:12:33.827Z,25.60
2023-02-03T12:15:19.927Z,25.50
2023-02-03T12:18:26.994Z,25.50
2023-02-03T12:21:32.081Z,25.50
2023-02-03T12:24:15.674Z,25.50
2023-02-03T12:26:52.867Z,25.50
2023-02-03T12:29:31.926Z,25.40
2023-02-03T12:32:37.555Z,25.40
2023-02-03T12:35:25.410Z,25.40
2023-02-03T12:38:05.552Z,25.40
2023-02-03T12:40:49.868Z,25.30
2023-02-03T12:43:23.706Z,25.30
2023-02-03T12:46:01.950Z,25.30
2023-02-03T12:48:55.942Z,25.30
2023-02-03T12:51:46.769Z,25.30
2023-02-03T12:54:50.822Z,25.30
2023-02-03T12:57:27.476Z,25.20
2023-02-03T13:00:38.733Z,25.20
2023-02-03T13:03:46.950Z,25.20
2023-02-03T13:06:46.195Z,25.20
2023-02-03T13:09:39.825Z,25.20
2023-02-03T13:12:37.026Z,25.20
2023-02-03T13:15:25.513Z,25.10
2023-02-03T13:18:05.623Z,25.20
2023-02-03T13:20:36.652Z,25.20
2023-02-03T13:23:13.709Z,25.20
2023-02-03T13:26:10.973Z,25.20
2023-02-03T13:29:11.856Z,25.20
2023-02-03T13:31:56.873Z,25.30
2023-02-03T13:34:54.584Z,25.20
2023-02-03T13:37:43.406Z,25.20
2023-02-03T13:40:35.268Z,25.60
2023-02-03T13:43:11.534Z,25.30
2023-02-03T13:45:51.148Z,25.30
2023-02-03T13:48:24.428Z,25.30
2023-02-03T13:51:12.460Z,25.30
2023-02-03T13:53:43.829Z,25.30
2023-02-03T13:56:23.997Z,25.30
2023-02-03T13:59:15.328Z,25.30
2023-02-03T14:01:43.835Z,25.40
2023-02-03T14:04:26.148Z,25.30
2023-02-03T14:06:53.016Z,25.40
2023-02-03T14:09:24.449Z,25.40
2023-02-03T14:12:12.322Z,25.40
2023-02-03T14:14:39.112Z,25.40
2023-02-03T14:17:51.024Z,25.40
2023-02-03T14:20:27.307Z,25.40
2023-02-03T14:23:21.871Z,25.40
2023-02-03T14:25:55.281Z,25.40
2023-02-03T14:28:31.841Z,25.40
2023-02-03T14:31:12.251Z,25.40
2023-02-03T14:34:14.150Z,25.40
2023-02-03T14:36:52.882Z,25.50
2023-02-03T14:39:26.143Z,25.40
2023-02-03T14:42:01.944Z,25.40
2023-02-03T14:45:10.712Z,25.40
2023-02-03T14:48:02.490Z,25.40
2023-02-03T14:51:14.107Z,25.40
2023-02-03T14:54:16.553Z,25.40
2023-02-03T14:57:27.019Z,25.40
2023-02-03T15:00:19.254Z,25.40
2023-02-03T15:03:10.717Z,25.40
2023-02-03T15:05:50.695Z,25.40
2023-02-03T15:08:47.203Z,25.40
2023-02-03T15:11:32.445Z,25.30
2023-02-03T15:14:34.941Z,25.30
2023-02-03T15:17:24.073Z,25.20
2023-02-03T15:19:52.332Z,25.20
2023-02-03T15:22:29.278Z,25.20
2023-02-03T15:25:04.351Z,25.20
2023-02-03T15:27:33.459Z,25.20
2023-02-03T15:30:22.015Z,25.20
2023-02-03T15:33:08.156Z,25.30
2023-02-03T15:35:39.098Z,25.40
2023-02-03T15:38:31.165Z,25.40
2023-02-03T15:40:59.253Z,25.50
2023-02-03T15:43:38.557Z,25.50
2023-02-03T15:46:17.827Z,25.60
2023-02-03T15:48:58.744Z,25.60
2023-02-03T15:51:40.790Z,25.70
2023-02-03T15:54:19.127Z,25.70
2023-02-03T15:56:57.445Z,25.80
2023-02-03T15:59:39.026Z,25.70
2023-02-03T16:02:16.110Z,25.70
2023-02-03T16:04:43.861Z,25.80
2023-02-03T16:07:28.306Z,25.70
2023-02-03T16:09:58.658Z,25.80
2023-02-03T16:12:31.599Z,25.70
2023-02-03T16:15:01.624Z,25.70
2023-02-03T16:17:39.133Z,25.70
2023-02-03T16:20:12.001Z,25.70
2023-02-03T16:22:47.252Z,25.70
2023-02-03T16:25:31.667Z,25.60
2023-02-03T16:28:27.427Z,25.60
2023-02-03T16:31:17.085Z,25.60
2023-02-03T16:34:05.890Z,25.40
2023-02-03T16:36:51.946Z,25.40
2023-02-03T16:39:37.616Z,25.40
2023-02-03T16:42:35.218Z,25.40
2023-02-03T16:45:22.486Z,25.40
2023-02-03T16:48:07.628Z,25.40
2023-02-03T16:50:53.975Z,25.40
2023-02-03T16:53:28.945Z,25.40
2023-02-03T16:56:01.852Z,25.40
2023-02-03T16:58:28.997Z,25.40
2023-02-03T17:00:58.763Z,25.40
2023-02-03T17:03:28.331Z,25.50
2023-02-03T17:05:57.457Z,25.50
2023-02-03T17:08:26.296Z,25.60
2023-02-03T17:10:53.444Z,25.60
2023-02-03T17:13:23.105Z,25.60
2023-02-03T17:15:55.055Z,25.70
2023-02-03T17:18:22.472Z,25.70
2023-02-03T17:20:49.804Z,25.80
2023-02-03T17:23:17.718Z,25.80
2023-02-03T17:25:47.547Z,25.80
2023-02-03T17:28:14.975Z,25.80
2023-02-03T17:30:42.181Z,25.80
2023-02-03T17:33:12.747Z,25.80
2023-02-03T17:35:45.397Z,25.80
2023-02-03T17:38:14.741Z,25.80
2023-02-03T17:54:35.304Z,25.70
2023-02-03T17:57:02.313Z,25.70
2023-02-03T17:59:29.244Z,25.60
2023-02-03T18:01:56.185Z,25.60
2023-02-03T18:04:23.320Z,25.60
2023-02-03T18:06:50.670Z,25.50
2023-02-03T18:09:17.599Z,25.50
2023-02-03T18:11:46.051Z,25.40
2023-02-03T18:14:15.608Z,25.40
2023-02-03T18:16:43.844Z,25.40
2023-02-03T18:19:14.940Z,25.30
2023-02-03T18:21:43.648Z,25.30
2023-02-03T18:24:13.863Z,25.20
2023-02-03T18:26:51.437Z,25.20
2023-02-03T18:29:19.231Z,25.10
2023-02-03T18:31:47.876Z,25.10
2023-02-03T18:34:16.882Z,25.00
2023-02-03T18:36:45.063Z,25.00
2023-02-03T18:39:14.526Z,24.90
2023-02-03T18:41:41.785Z,24.90
2023-02-03T18:44:09.042Z,24.80
2023-02-03T18:46:36.073Z,24.70
2023-02-03T18:49:03.378Z,24.70
2023-02-03T18:51:30.424Z,24.70
2023-02-03T18:53:59.563Z,24.60
2023-02-03T18:56:38.266Z,24.60
2023-02-03T18:59:09.492Z,24.50
2023-02-03T19:01:39.152Z,24.50
2023-02-03T19:04:06.782Z,24.40
2023-02-03T19:06:35.952Z,24.40
2023-02-03T19:09:05.940Z,24.40
2023-02-03T19:11:33.871Z,24.30
2023-02-03T19:14:00.897Z,24.20
2023-02-03T19:16:27.949Z,24.20
2023-02-03T19:18:54.924Z,24.20
2023-02-03T19:21:21.834Z,24.10
2023-02-03T19:23:48.907Z,24.10
2023-02-03T19:26:15.918Z,24.00
2023-02-03T19:28:43.116Z,24.00
2023-02-03T19:31:17.927Z,24.00
2023-02-03T19:33:45.359Z,23.90
2023-02-03T19:36:13.275Z,23.90
2023-02-03T19:38:40.434Z,23.80
2023-02-03T19:41:08.788Z,23.80
2023-02-03T19:43:35.883Z,23.80
2023-02-03T19:46:02.964Z,23.70
2023-02-03T19:48:30.260Z,23.70
2023-02-03T19:50:57.265Z,23.70
2023-02-03T19:53:27.374Z,23.70
2023-02-03T19:55:54.439Z,23.60
2023-02-03T19:58:21.432Z,23.60
2023-02-03T20:00:48.307Z,23.60
2023-02-03T20:03:17.706Z,23.60
2023-02-03T20:05:44.607Z,23.50
2023-02-03T20:08:16.635Z,23.50
2023-02-03T20:10:45.447Z,23.50
2023-02-03T20:13:14.295Z,23.40
2023-02-03T20:15:42.185Z,23.40
2023-02-03T20:18:09.233Z,23.40
2023-02-03T20:20:36.994Z,23.40
2023-02-03T20:23:03.972Z,23.40
2023-02-03T20:25:31.354Z,23.30
2023-02-03T20:28:01.903Z,23.30
2023-02-03T20:30:29.237Z,23.30
2023-02-03T20:32:56.432Z,23.30
2023-02-03T20:35:23.965Z,23.30
2023-02-03T20:37:51.417Z,23.20
2023-02-03T20:40:24.690Z,23.20
2023-02-03T20:42:53.042Z,23.20
2023-02-03T20:45:23.723Z,23.20
2023-02-03T20:47:51.662Z,23.20
2023-02-03T20:50:28.891Z,23.10
2023-02-03T20:52:59.024Z,23.20
2023-02-03T20:55:26.076Z,23.10
2023-02-03T20:57:55.074Z,23.10
2023-02-03T21:00:26.235Z,23.10
2023-02-03T21:03:12.490Z,23.10
2023-02-03T21:05:42.469Z,23.00
2023-02-03T21:08:20.340Z,23.00
2023-02-03T21:10:48.784Z,23.00
2023-02-03T21:13:27.912Z,23.00
2023-02-03T21:16:04.636Z,23.00
2023-02-03T21:18:50.359Z,23.00
2023-02-03T21:21:32.388Z,23.00
2023-02-03T21:23:59.441Z,22.90
2023-02-03T21:26:30.218Z,22.90
2023-02-03T21:29:01.571Z,22.90
2023-02-03T21:31:31.187Z,22.90
2023-02-03T21:34:04.580Z,22.90
2023-02-03T21:36:35.713Z,22.90
2023-02-03T21:39:23.255Z,22.90
2023-02-03T21:41:50.344Z,22.90
2023-02-03T21:44:32.276Z,22.90
2023-02-03T21:47:14.250Z,22.90
2023-02-03T21:49:41.168Z,22.80
2023-02-03T21:52:14.704Z,22.80
2023-02-03T21:54:44.271Z,22.80
2023-02-03T21:57:17.384Z,22.80
2023-02-03T21:59:47.225Z,22.80
2023-02-03T22:02:59.584Z,22.80
2023-02-03T22:05:26.632Z,22.80
2023-02-03T22:07:54.841Z,22.70
2023-02-03T22:10:21.729Z,22.70
2023-02-03T22:12:48.727Z,22.80
2023-02-03T22:15:15.974Z,22.70
2023-02-03T22:17:42.905Z,22.70
2023-02-03T22:20:10.883Z,22.70
2023-02-03T22:22:37.728Z,22.70
2023-02-03T22:25:04.972Z,22.70
2023-02-03T22:27:32.590Z,22.70
2023-02-03T22:29:59.519Z,22.70
2023-02-03T22:32:26.369Z,22.70
2023-02-03T22:34:53.263Z,22.70
2023-02-03T22:37:20.205Z,22.60
2023-02-03T22:39:47.148Z,22.60
2023-02-03T22:42:15.945Z,22.60
2023-02-03T22:44:42.875Z,22.60
2023-02-03T22:47:09.773Z,22.60
2023-02-03T22:49:36.641Z,22.60
2023-02-03T22:52:03.644Z,22.60
2023-02-03T22:54:30.555Z,22.60
2023-02-03T22:56:57.471Z,22.60
2023-02-03T22:59:24.378Z,22.60
2023-02-03T23:01:51.336Z,22.50
2023-02-03T23:04:18.223Z,22.50
2023-02-03T23:06:45.173Z,22.50
2023-02-03T23:09:12.063Z,22.50
2023-02-03T23:11:39.017Z,22.50
2023-02-03T23:14:05.960Z,22.50
2023-02-03T23:16:32.860Z,22.50
2023-02-03T23:18:59.733Z,22.50
2023-02-03T23:21:26.565Z,22.50
2023-02-03T23:23:53.660Z,22.40
2023-02-03T23:26:20.556Z,22.50
2023-02-03T23:28:47.498Z,22.50
2023-02-03T23:31:15.224Z,22.40
2023-02-03T23:34:05.362Z,22.40
2023-02-03T23:36:33.412Z,22.40
2023-02-03T23:39:00.329Z,22.40
2023-02-03T23:41:27.248Z,22.40
2023-02-03T23:43:54.159Z,22.40
2023-02-03T23:46:21.054Z,22.40
2023-02-03T23:48:48.004Z,22.40
2023-02-03T23:51:14.987Z,22.40
2023-02-03T23:53:41.934Z,22.40
2023-02-03T23:56:08.921Z,22.30
2023-02-03T23:58:35.864Z,22.40
